createdAt,value
2022-11-17T00:02:17.592Z,14.70
2022-11-17T00:04:48.905Z,15.40
2022-11-17T00:07:16.024Z,14.95
2022-11-17T00:09:43.562Z,14.23
2022-11-17T00:12:32.963Z,14.95
2022-11-17T00:15:02.095Z,14.07
2022-11-17T00:17:30.851Z,15.02
2022-11-17T00:20:16.865Z,13.82
2022-11-17T00:22:45.602Z,13.80
2022-11-17T00:25:13.245Z,13.73
2022-11-17T00:27:40.411Z,15.32
2022-11-17T00:30:11.647Z,15.40
2022-11-17T00:32:59.742Z,16.37
2022-11-17T00:35:27.162Z,16.27
2022-11-17T00:38:13.246Z,16.45
2022-11-17T00:40:43.191Z,16.15
2022-11-17T00:43:10.684Z,14.93
2022-11-17T00:45:37.820Z,14.65
2022-11-17T00:48:09.288Z,14.82
2022-11-17T00:50:38.242Z,16.80
2022-11-17T00:53:05.655Z,15.20
2022-11-17T00:55:32.933Z,15.85
2022-11-17T00:58:01.150Z,14.87
2022-11-17T01:00:35.964Z,14.30
2022-11-17T01:03:04.285Z,13.13
2022-11-17T01:05:34.560Z,14.85
2022-11-17T01:08:01.677Z,13.68
2022-11-17T01:10:28.774Z,14.48
2022-11-17T01:12:57.140Z,13.55
2022-11-17T01:15:24.532Z,13.10
2022-11-17T01:17:53.097Z,14.98
2022-11-17T01:20:21.063Z,15.23
2022-11-17T01:22:50.207Z,14.70
2022-11-17T01:25:18.278Z,15.13
2022-11-17T01:27:48.685Z,13.82
2022-11-17T01:30:17.796Z,15.48
2022-11-17T01:32:46.721Z,15.68
2022-11-17T01:35:16.298Z,12.88
2022-11-17T01:37:43.522Z,14.27
2022-11-17T01:40:14.123Z,13.88
2022-11-17T01:42:42.298Z,14.32
2022-11-17T01:45:26.887Z,14.40
2022-11-17T01:48:00.520Z,14.82
2022-11-17T01:50:40.284Z,14.30
2022-11-17T01:53:12.367Z,15.38
2022-11-17T01:55:45.028Z,15.32
2022-11-17T01:58:18.475Z,14.03
2022-11-17T02:00:46.576Z,15.48
2022-11-17T02:03:14.354Z,14.27
2022-11-17T02:05:55.135Z,15.52
2022-11-17T02:08:25.444Z,14.70
2022-11-17T02:10:54.204Z,15.52
2022-11-17T02:13:23.084Z,14.60
2022-11-17T02:15:50.819Z,17.20
2022-11-17T02:18:18.447Z,15.32
2022-11-17T02:21:11.287Z,15.77
2022-11-17T02:24:09.782Z,16.20
2022-11-17T02:26:48.922Z,15.80
2022-11-17T02:29:52.293Z,15.85
2022-11-17T02:32:30.365Z,15.32
2022-11-17T02:35:22.198Z,16.08
2022-11-17T02:38:19.328Z,16.23
2022-11-17T02:41:06.680Z,16.00
2022-11-17T02:44:04.067Z,15.90
2022-11-17T02:47:18.999Z,15.38
2022-11-17T02:49:58.500Z,16.30
2022-11-17T02:52:27.699Z,15.48
2022-11-17T02:55:04.123Z,13.27
2022-11-17T02:57:38.178Z,15.82
2022-11-17T03:00:18.177Z,16.25
2022-11-17T03:03:03.489Z,14.60
2022-11-17T03:06:07.825Z,14.25
2022-11-17T03:08:47.235Z,13.75
2022-11-17T03:11:22.681Z,14.00
2022-11-17T03:14:02.595Z,14.05
2022-11-17T03:16:54.240Z,15.25
2022-11-17T03:19:56.797Z,15.75
2022-11-17T03:22:43.894Z,14.55
2022-11-17T03:25:17.469Z,15.25
2022-11-17T03:27:49.175Z,14.07
2022-11-17T03:30:17.854Z,15.20
2022-11-17T03:32:51.495Z,14.15
2022-11-17T03:35:23.852Z,14.57
2022-11-17T03:37:58.971Z,14.40
2022-11-17T03:40:31.444Z,13.82
2022-11-17T03:43:02.445Z,13.77
2022-11-17T03:45:37.783Z,14.10
2022-11-17T03:48:20.387Z,14.87
2022-11-17T03:50:59.822Z,15.73
2022-11-17T03:53:26.953Z,13.80
2022-11-17T03:56:17.340Z,13.98
2022-11-17T03:59:00.746Z,14.65
2022-11-17T04:01:31.427Z,14.35
2022-11-17T04:03:58.909Z,14.63
2022-11-17T04:06:26.367Z,14.32
2022-11-17T04:08:53.403Z,14.93
2022-11-17T04:11:39.217Z,15.13
2022-11-17T04:14:25.505Z,14.68
2022-11-17T04:16:53.923Z,15.10
2022-11-17T04:19:20.960Z,14.90
2022-11-17T04:21:48.310Z,14.43
2022-11-17T04:24:18.336Z,14.57
2022-11-17T04:27:06.570Z,14.40
2022-11-17T04:29:36.684Z,13.95
2022-11-17T04:32:04.410Z,13.90
2022-11-17T04:34:32.979Z,14.57
2022-11-17T04:37:05.363Z,13.20
2022-11-17T04:39:38.728Z,14.40
2022-11-17T04:42:06.114Z,12.75
2022-11-17T04:44:33.442Z,14.30
2022-11-17T04:47:03.291Z,14.87
2022-11-17T04:49:32.344Z,13.40
2022-11-17T04:51:59.381Z,15.32
2022-11-17T04:54:26.451Z,14.05
2022-11-17T04:56:55.047Z,15.00
2022-11-17T04:59:22.386Z,15.70
2022-11-17T05:01:49.793Z,14.00
2022-11-17T05:04:39.764Z,14.68
2022-11-17T05:07:08.601Z,14.82
2022-11-17T05:09:36.238Z,14.48
2022-11-17T05:12:22.373Z,13.55
2022-11-17T05:14:50.576Z,14.35
2022-11-17T05:17:18.120Z,14.93
2022-11-17T05:19:47.189Z,15.07
2022-11-17T05:22:39.950Z,14.57
2022-11-17T05:25:08.501Z,13.23
2022-11-17T05:27:36.176Z,14.27
2022-11-17T05:30:05.723Z,13.30
2022-11-17T05:32:32.809Z,14.77
2022-11-17T05:35:01.483Z,14.68
2022-11-17T05:37:28.649Z,13.95
2022-11-17T05:39:55.679Z,15.30
2022-11-17T05:42:23.058Z,13.55
2022-11-17T05:44:51.207Z,13.68
2022-11-17T05:47:23.773Z,14.27
2022-11-17T05:49:53.153Z,14.48
2022-11-17T05:52:20.950Z,12.77
2022-11-17T05:54:48.124Z,13.27
2022-11-17T05:57:20.953Z,15.75
2022-11-17T05:59:59.765Z,14.13
2022-11-17T06:02:45.289Z,14.65
2022-11-17T06:05:18.705Z,13.52
2022-11-17T06:07:51.646Z,14.87
2022-11-17T06:10:22.969Z,13.77
2022-11-17T06:12:52.087Z,14.30
2022-11-17T06:15:21.795Z,13.00
2022-11-17T06:17:56.205Z,15.07
2022-11-17T06:20:43.376Z,13.00
2022-11-17T06:23:12.227Z,13.07
2022-11-17T06:25:40.351Z,12.93
2022-11-17T06:28:14.258Z,13.48
2022-11-17T06:30:44.409Z,13.05
2022-11-17T06:33:15.667Z,13.40
2022-11-17T06:35:45.541Z,12.32
2022-11-17T06:38:14.750Z,10.85
2022-11-17T06:40:45.314Z,12.70
2022-11-17T06:43:15.254Z,12.45
2022-11-17T06:45:47.579Z,12.57
2022-11-17T06:48:17.310Z,12.25
2022-11-17T06:50:48.919Z,12.98
2022-11-17T06:53:17.611Z,13.27
2022-11-17T06:55:47.826Z,12.50
2022-11-17T06:58:18.204Z,13.40
2022-11-17T07:00:48.639Z,14.77
2022-11-17T07:03:17.802Z,16.65
2022-11-17T07:05:47.281Z,14.00
2022-11-17T07:08:19.046Z,12.60
2022-11-17T07:10:49.309Z,13.80
2022-11-17T07:13:18.123Z,15.98
2022-11-17T07:15:46.972Z,13.10
2022-11-17T07:18:16.719Z,13.65
2022-11-17T07:20:46.991Z,14.38
2022-11-17T07:23:18.737Z,12.70
2022-11-17T07:25:52.355Z,14.00
2022-11-17T07:28:21.668Z,14.35
2022-11-17T07:30:59.315Z,13.50
2022-11-17T07:33:27.690Z,13.10
2022-11-17T07:35:56.099Z,11.75
2022-11-17T07:38:25.275Z,13.80
2022-11-17T07:40:57.614Z,13.85
2022-11-17T07:43:25.440Z,14.00
2022-11-17T07:45:53.382Z,13.90
2022-11-17T07:48:21.779Z,13.60
2022-11-17T07:50:49.383Z,12.93
2022-11-17T07:53:17.720Z,13.23
2022-11-17T07:55:47.119Z,12.75
2022-11-17T07:58:15.207Z,12.73
2022-11-17T08:00:44.305Z,13.62
2022-11-17T08:03:13.975Z,12.02
2022-11-17T08:05:43.717Z,11.27
2022-11-17T08:08:13.132Z,12.63
2022-11-17T08:10:41.106Z,13.32
2022-11-17T08:13:11.080Z,12.55
2022-11-17T08:15:38.576Z,13.60
2022-11-17T08:18:09.083Z,13.57
2022-11-17T08:20:42.628Z,12.02
2022-11-17T08:23:10.212Z,12.35
2022-11-17T08:25:37.424Z,11.35
2022-11-17T08:28:06.689Z,11.18
2022-11-17T08:30:36.131Z,12.02
2022-11-17T08:33:03.938Z,11.43
2022-11-17T08:35:37.302Z,11.75
2022-11-17T08:38:06.014Z,11.02
2022-11-17T08:40:33.858Z,11.30
2022-11-17T08:43:03.791Z,12.13
2022-11-17T08:45:36.705Z,11.27
2022-11-17T08:48:09.980Z,9.80
2022-11-17T08:50:39.537Z,10.20
2022-11-17T08:53:17.393Z,9.90
2022-11-17T08:55:48.471Z,9.63
2022-11-17T08:58:19.786Z,10.55
2022-11-17T09:00:51.002Z,11.68
2022-11-17T09:03:18.410Z,11.88
2022-11-17T09:05:50.902Z,12.02
2022-11-17T09:08:49.201Z,11.52
2022-11-17T09:11:11.839Z,11.90
2022-11-17T09:13:42.637Z,11.45
2022-11-17T09:16:12.563Z,10.18
2022-11-17T09:18:41.554Z,10.75
2022-11-17T09:21:15.746Z,11.80
2022-11-17T09:24:02.599Z,9.85
2022-11-17T09:26:31.456Z,9.10
2022-11-17T09:29:03.273Z,8.65
2022-11-17T09:31:30.973Z,8.45
2022-11-17T09:34:00.830Z,9.10
2022-11-17T09:36:32.297Z,8.40
2022-11-17T09:39:02.530Z,9.20
2022-11-17T09:41:48.184Z,9.55
2022-11-17T09:44:39.843Z,8.10
2022-11-17T09:47:36.207Z,7.85
2022-11-17T09:50:28.176Z,8.23
2022-11-17T09:53:07.829Z,8.48
2022-11-17T09:55:39.796Z,8.10
2022-11-17T09:58:33.954Z,8.25
2022-11-17T10:01:02.006Z,7.80
2022-11-17T10:03:40.083Z,8.38
2022-11-17T10:06:23.120Z,7.55
2022-11-17T10:09:01.233Z,6.90
2022-11-17T10:11:34.133Z,8.00
2022-11-17T10:14:08.437Z,6.68
2022-11-17T10:16:37.772Z,7.50
2022-11-17T10:19:15.818Z,6.97
2022-11-17T10:21:43.011Z,8.15
2022-11-17T10:24:10.655Z,7.90
2022-11-17T10:26:48.652Z,7.32
2022-11-17T10:29:23.243Z,7.22
2022-11-17T10:31:50.598Z,7.18
2022-11-17T10:34:38.812Z,6.62
2022-11-17T10:37:13.511Z,7.07
2022-11-17T10:39:43.298Z,7.23
2022-11-17T10:42:25.395Z,7.97
2022-11-17T10:44:58.588Z,7.47
2022-11-17T10:47:44.231Z,6.60
2022-11-17T10:50:31.931Z,6.93
2022-11-17T10:53:21.366Z,7.12
2022-11-17T10:55:54.761Z,5.87
2022-11-17T10:58:24.597Z,6.95
2022-11-17T11:00:59.062Z,5.68
2022-11-17T11:06:02.783Z,5.72
2022-11-17T11:08:38.582Z,5.93
2022-11-17T11:11:16.047Z,6.95
2022-11-17T11:13:52.145Z,5.93
2022-11-17T11:16:20.261Z,5.60
2022-11-17T11:18:52.889Z,5.70
2022-11-17T11:21:28.312Z,5.40
2022-11-17T11:24:10.513Z,5.35
2022-11-17T11:27:00.793Z,5.75
2022-11-17T11:29:59.366Z,5.85
2022-11-17T11:33:03.359Z,6.47
2022-11-17T11:36:15.574Z,6.12
2022-11-17T11:38:55.230Z,6.60
2022-11-17T11:41:47.860Z,6.32
2022-11-17T11:44:38.710Z,6.32
2022-11-17T11:47:07.460Z,6.45
2022-11-17T11:49:59.930Z,6.60
2022-11-17T11:52:35.681Z,5.80
2022-11-17T11:55:20.954Z,6.15
2022-11-17T11:58:06.004Z,5.45
2022-11-17T12:00:37.450Z,6.03
2022-11-17T12:03:20.843Z,5.97
2022-11-17T12:06:25.171Z,5.90
2022-11-17T12:09:07.323Z,6.70
2022-11-17T12:11:53.649Z,6.25
2022-11-17T12:14:22.089Z,6.85
2022-11-17T12:16:49.543Z,6.72
2022-11-17T12:19:50.297Z,7.40
2022-11-17T12:22:22.704Z,6.12
2022-11-17T12:24:56.371Z,5.97
2022-11-17T12:27:35.858Z,5.93
2022-11-17T12:30:12.367Z,7.10
2022-11-17T12:32:49.490Z,6.20
2022-11-17T12:35:27.252Z,6.60
2022-11-17T12:38:22.186Z,6.22
2022-11-17T12:40:51.237Z,6.45
2022-11-17T12:43:25.465Z,6.00
2022-11-17T12:45:52.425Z,7.05
2022-11-17T12:48:33.489Z,6.80
2022-11-17T12:51:07.661Z,6.70
2022-11-17T12:53:39.937Z,7.05
2022-11-17T12:56:19.775Z,5.75
2022-11-17T12:59:17.846Z,5.07
2022-11-17T13:02:21.866Z,4.45
2022-11-17T13:04:57.148Z,4.75
2022-11-17T13:07:26.212Z,4.22
2022-11-17T13:09:58.980Z,4.93
2022-11-17T13:12:30.649Z,5.50
2022-11-17T13:15:00.420Z,4.05
2022-11-17T13:17:39.653Z,5.05
2022-11-17T13:20:28.814Z,4.68
2022-11-17T13:23:26.111Z,4.85
2022-11-17T13:26:37.863Z,4.50
2022-11-17T13:29:13.815Z,4.05
2022-11-17T13:31:41.225Z,4.15
2022-11-17T13:34:17.454Z,4.55
2022-11-17T13:37:00.132Z,4.20
2022-11-17T13:39:28.131Z,4.60
2022-11-17T13:42:01.065Z,5.22
2022-11-17T13:44:28.863Z,5.72
2022-11-17T13:46:56.222Z,4.47
2022-11-17T13:49:36.207Z,4.43
2022-11-17T13:52:14.213Z,4.18
2022-11-17T13:54:45.017Z,4.25
2022-11-17T13:57:25.326Z,4.85
2022-11-17T13:59:53.189Z,4.28
2022-11-17T14:02:20.411Z,4.78
2022-11-17T14:05:14.473Z,4.22
2022-11-17T14:07:43.561Z,4.22
2022-11-17T14:10:19.960Z,4.72
2022-11-17T14:13:13.932Z,8.48
2022-11-17T14:15:42.744Z,7.57
2022-11-17T14:18:34.277Z,7.50
2022-11-17T14:21:15.262Z,6.47
2022-11-17T14:23:44.260Z,5.80
2022-11-17T14:26:24.930Z,6.03
2022-11-17T14:28:52.654Z,7.75
2022-11-17T14:31:20.122Z,8.70
2022-11-17T14:33:47.260Z,8.23
2022-11-17T14:36:16.711Z,9.13
2022-11-17T14:38:45.418Z,7.70
2022-11-17T14:41:16.109Z,8.27
2022-11-17T14:43:43.639Z,7.47
2022-11-17T14:46:18.889Z,7.68
2022-11-17T14:48:46.258Z,8.93
2022-11-17T14:51:15.618Z,7.03
2022-11-17T14:53:44.093Z,8.23
2022-11-17T14:56:16.383Z,10.32
2022-11-17T14:58:43.621Z,10.93
2022-11-17T15:01:15.487Z,15.10
2022-11-17T15:03:42.924Z,15.65
2022-11-17T15:06:18.211Z,15.52
2022-11-17T15:08:58.310Z,16.10
2022-11-17T15:11:26.622Z,12.85
2022-11-17T15:13:54.005Z,11.43
2022-11-17T15:16:21.127Z,12.32
2022-11-17T15:18:48.614Z,14.35
2022-11-17T15:21:17.014Z,15.18
2022-11-17T15:23:44.647Z,19.87
2022-11-17T15:26:14.324Z,18.45
2022-11-17T15:28:42.063Z,21.15
2022-11-17T15:31:18.305Z,21.67
2022-11-17T15:33:47.105Z,23.80
2022-11-17T15:36:16.833Z,20.73
2022-11-17T15:38:43.968Z,20.30
2022-11-17T15:41:12.596Z,22.92
2022-11-17T15:43:41.576Z,22.62
2022-11-17T15:46:18.694Z,23.45
2022-11-17T15:48:49.122Z,26.58
2022-11-17T15:51:18.268Z,24.83
2022-11-17T15:53:48.890Z,25.05
2022-11-17T15:56:21.421Z,26.58
2022-11-17T15:58:54.296Z,25.70
2022-11-17T16:01:24.948Z,26.85
2022-11-17T16:03:56.634Z,26.73
2022-11-17T16:06:23.810Z,27.37
2022-11-17T16:08:51.999Z,24.55
2022-11-17T16:11:19.335Z,29.83
2022-11-17T16:13:46.760Z,30.77
2022-11-17T16:16:15.316Z,35.30
2022-11-17T16:18:42.686Z,30.20
2022-11-17T16:21:12.342Z,25.98
2022-11-17T16:23:39.508Z,22.85
2022-11-17T16:26:07.501Z,23.05
2022-11-17T16:28:34.655Z,23.38
2022-11-17T16:31:18.895Z,22.10
2022-11-17T16:36:28.995Z,22.25
2022-11-17T16:39:01.510Z,19.80
2022-11-17T16:41:32.521Z,25.67
2022-11-17T16:44:00.504Z,23.70
2022-11-17T16:46:30.299Z,26.42
2022-11-17T16:49:01.724Z,24.15
2022-11-17T16:51:29.234Z,22.73
2022-11-17T16:53:59.050Z,24.65
2022-11-17T16:56:26.301Z,23.17
2022-11-17T16:58:54.831Z,21.80
2022-11-17T17:01:24.597Z,16.90
2022-11-17T17:03:56.031Z,15.68
2022-11-17T17:06:23.710Z,16.33
2022-11-17T17:08:55.501Z,15.95
2022-11-17T17:11:23.090Z,17.45
2022-11-17T17:13:50.495Z,15.93
2022-11-17T17:16:19.488Z,15.98
2022-11-17T17:18:46.906Z,15.00
2022-11-17T17:21:17.181Z,14.13
2022-11-17T17:23:45.667Z,13.50
2022-11-17T17:26:16.846Z,13.57
2022-11-17T17:28:46.401Z,14.27
2022-11-17T17:31:20.971Z,12.45
2022-11-17T17:33:50.739Z,12.68
2022-11-17T17:36:20.777Z,13.45
2022-11-17T17:38:53.616Z,12.05
2022-11-17T17:41:27.220Z,13.30
2022-11-17T17:43:57.138Z,11.65
2022-11-17T17:46:25.226Z,13.93
2022-11-17T17:48:52.556Z,12.52
2022-11-17T17:51:21.433Z,12.68
2022-11-17T17:53:51.456Z,13.43
2022-11-17T17:56:20.613Z,13.13
2022-11-17T17:58:51.837Z,14.52
2022-11-17T18:01:25.020Z,14.45
2022-11-17T18:03:53.996Z,14.00
2022-11-17T18:06:22.291Z,15.77
2022-11-17T18:08:49.993Z,17.25
2022-11-17T18:11:19.832Z,16.08
2022-11-17T18:13:52.429Z,15.57
2022-11-17T18:16:24.281Z,16.92
2022-11-17T18:18:57.107Z,18.12
2022-11-17T18:21:25.438Z,17.37
2022-11-17T18:23:53.598Z,17.98
2022-11-17T18:26:25.921Z,17.83
2022-11-17T18:29:05.111Z,17.23
2022-11-17T18:31:34.009Z,16.73
2022-11-17T18:34:04.628Z,16.00
2022-11-17T18:36:32.161Z,14.85
2022-11-17T18:39:02.090Z,17.55
2022-11-17T18:41:30.958Z,17.12
2022-11-17T18:43:58.657Z,18.35
2022-11-17T18:46:30.712Z,18.23
2022-11-17T18:48:58.603Z,20.15
2022-11-17T18:51:28.161Z,19.37
2022-11-17T18:53:57.392Z,18.35
2022-11-17T18:56:27.286Z,21.95
2022-11-17T18:58:54.488Z,22.10
2022-11-17T19:01:28.055Z,31.52
2022-11-17T19:03:58.074Z,31.87
2022-11-17T19:06:25.774Z,27.35
2022-11-17T19:08:53.807Z,24.83
2022-11-17T19:11:22.409Z,21.65
2022-11-17T19:13:49.945Z,21.48
2022-11-17T19:16:19.579Z,21.27
2022-11-17T19:18:48.449Z,20.83
2022-11-17T19:21:30.817Z,21.73
2022-11-17T19:24:00.352Z,19.17
2022-11-17T19:26:29.894Z,18.23
2022-11-17T19:29:02.244Z,23.87
2022-11-17T19:31:29.960Z,24.58
2022-11-17T19:33:57.961Z,24.70
2022-11-17T19:36:29.902Z,25.37
2022-11-17T19:38:58.739Z,23.12
2022-11-17T19:41:26.842Z,21.85
2022-11-17T19:43:58.436Z,18.15
2022-11-17T19:46:27.571Z,19.17
2022-11-17T19:48:58.283Z,22.17
2022-11-17T19:51:29.218Z,22.77
2022-11-17T19:54:01.644Z,22.50
2022-11-17T19:56:29.347Z,23.90
2022-11-17T19:58:56.987Z,25.83
2022-11-17T20:01:28.982Z,26.42
2022-11-17T20:03:57.563Z,28.70
2022-11-17T20:06:28.778Z,28.12
2022-11-17T20:08:57.407Z,32.53
2022-11-17T20:11:27.200Z,30.30
2022-11-17T20:13:55.184Z,25.70
2022-11-17T20:16:24.720Z,25.65
2022-11-17T20:18:57.592Z,29.37
2022-11-17T20:21:26.107Z,31.05
2022-11-17T20:23:54.315Z,28.75
2022-11-17T20:26:26.746Z,26.55
2022-11-17T20:28:55.225Z,25.37
2022-11-17T20:31:31.232Z,25.90
2022-11-17T20:34:00.709Z,23.80
2022-11-17T20:36:29.889Z,23.42
2022-11-17T20:39:00.191Z,23.67
2022-11-17T20:41:28.233Z,23.25
2022-11-17T20:43:56.383Z,23.48
2022-11-17T20:46:24.215Z,22.77
2022-11-17T20:48:52.138Z,21.30
2022-11-17T20:51:24.303Z,21.48
2022-11-17T20:53:51.784Z,19.23
2022-11-17T20:56:19.028Z,18.55
2022-11-17T20:58:46.123Z,18.17
2022-11-17T21:01:19.219Z,17.83
2022-11-17T21:03:46.736Z,17.98
2022-11-17T21:06:15.398Z,18.77
2022-11-17T21:08:44.329Z,20.50
2022-11-17T21:11:46.888Z,20.88
2022-11-17T21:14:14.316Z,22.45
2022-11-17T21:16:45.475Z,21.98
2022-11-17T21:19:14.270Z,29.45
2022-11-17T21:21:42.973Z,30.12
2022-11-17T21:24:10.248Z,28.40
2022-11-17T21:26:37.604Z,24.75
2022-11-17T21:29:06.836Z,22.83
2022-11-17T21:31:35.086Z,20.73
2022-11-17T21:34:04.593Z,20.88
2022-11-17T21:36:33.406Z,21.15
2022-11-17T21:39:00.892Z,21.58
2022-11-17T21:41:30.157Z,21.75
2022-11-17T21:44:02.095Z,23.05
2022-11-17T21:46:31.925Z,25.00
2022-11-17T21:49:01.406Z,23.40
2022-11-17T21:51:34.153Z,24.30
2022-11-17T21:54:04.361Z,24.15
2022-11-17T21:56:32.195Z,21.25
2022-11-17T21:59:01.440Z,20.52
2022-11-17T22:01:30.062Z,21.17
2022-11-17T22:03:57.506Z,20.58
2022-11-17T22:06:26.085Z,20.83
2022-11-17T22:08:54.684Z,20.95
2022-11-17T22:11:38.181Z,19.15
2022-11-17T22:14:08.355Z,18.92
2022-11-17T22:16:38.150Z,18.73
2022-11-17T22:19:06.135Z,18.25
2022-11-17T22:21:33.229Z,19.37
2022-11-17T22:24:00.574Z,18.37
2022-11-17T22:26:29.344Z,17.98
2022-11-17T22:28:56.387Z,19.33
2022-11-17T22:31:24.274Z,19.98
2022-11-17T22:33:51.624Z,20.08
2022-11-17T22:36:19.393Z,18.27
2022-11-17T22:38:50.290Z,17.80
2022-11-17T22:41:18.667Z,20.73
2022-11-17T22:43:53.104Z,20.42
2022-11-17T22:46:22.033Z,22.60
2022-11-17T22:48:49.511Z,20.85
2022-11-17T22:51:36.130Z,20.85
2022-11-17T22:54:04.722Z,20.27
2022-11-17T22:56:32.321Z,20.20
2022-11-17T22:59:00.058Z,21.23
2022-11-17T23:01:27.700Z,21.35
2022-11-17T23:03:54.787Z,20.45
2022-11-17T23:06:22.904Z,19.85
2022-11-17T23:08:50.714Z,20.12
2022-11-17T23:14:08.017Z,19.05
2022-11-17T23:16:36.746Z,17.80
2022-11-17T23:19:04.501Z,17.40
2022-11-17T23:21:32.150Z,18.17
2022-11-17T23:23:59.177Z,13.80
2022-11-17T23:26:26.256Z,17.65
2022-11-17T23:28:53.620Z,17.10
2022-11-17T23:31:20.854Z,18.30
2022-11-17T23:33:49.018Z,16.35
2022-11-17T23:36:19.282Z,17.33
2022-11-17T23:38:47.410Z,15.82
2022-11-17T23:41:16.930Z,15.70
2022-11-17T23:43:44.712Z,16.10
2022-11-17T23:46:14.001Z,15.40
2022-11-17T23:48:42.456Z,16.73
2022-11-17T23:51:15.152Z,16.67
2022-11-17T23:53:43.000Z,16.58
2022-11-17T23:56:10.771Z,14.48
2022-11-17T23:58:37.818Z,16.55
